sensor_id;sensor_type;location;lat;lon;timestamp;P1;durP1;ratioP1;P2;durP2;ratioP2
26181;SDS011;13927;51.534;11.866;2022-10-18T00:01:53;4.68;;;3.53;;
26181;SDS011;13927;51.534;11.866;2022-10-18T00:04:19;5.90;;;4.35;;
26181;SDS011;13927;51.534;11.866;2022-10-18T00:06:44;5.53;;;4.57;;
26181;SDS011;13927;51.534;11.866;2022-10-18T00:09:10;6.85;;;3.85;;
26181;SDS011;13927;51.534;11.866;2022-10-18T00:11:37;6.50;;;3.60;;
26181;SDS011;13927;51.534;11.866;2022-10-18T00:14:03;8.35;;;4.15;;
26181;SDS011;13927;51.534;11.866;2022-10-18T00:16:29;4.50;;;3.65;;
26181;SDS011;13927;51.534;11.866;2022-10-18T00:18:55;4.78;;;3.85;;
26181;SDS011;13927;51.534;11.866;2022-10-18T00:21:21;5.32;;;4.10;;
26181;SDS011;13927;51.534;11.866;2022-10-18T00:23:49;8.63;;;4.82;;
26181;SDS011;13927;51.534;11.866;2022-10-18T00:26:20;4.18;;;3.75;;
26181;SDS011;13927;51.534;11.866;2022-10-18T00:28:49;6.03;;;3.97;;
26181;SDS011;13927;51.534;11.866;2022-10-18T00:31:21;6.22;;;4.07;;
26181;SDS011;13927;51.534;11.866;2022-10-18T00:33:49;5.18;;;4.38;;
26181;SDS011;13927;51.534;11.866;2022-10-18T00:36:17;5.05;;;4.55;;
26181;SDS011;13927;51.534;11.866;2022-10-18T00:38:44;9.43;;;4.68;;
26181;SDS011;13927;51.534;11.866;2022-10-18T00:41:11;4.75;;;4.28;;
26181;SDS011;13927;51.534;11.866;2022-10-18T00:46:30;6.68;;;4.40;;
26181;SDS011;13927;51.534;11.866;2022-10-18T00:48:59;5.70;;;4.60;;
26181;SDS011;13927;51.534;11.866;2022-10-18T00:51:31;6.25;;;4.72;;
26181;SDS011;13927;51.534;11.866;2022-10-18T00:54:11;8.57;;;4.78;;
26181;SDS011;13927;51.534;11.866;2022-10-18T00:56:39;10.77;;;4.78;;
26181;SDS011;13927;51.534;11.866;2022-10-18T00:59:06;5.13;;;4.38;;
26181;SDS011;13927;51.534;11.866;2022-10-18T01:01:32;9.85;;;7.53;;
26181;SDS011;13927;51.534;11.866;2022-10-18T01:03:58;12.65;;;7.43;;
26181;SDS011;13927;51.534;11.866;2022-10-18T01:06:23;9.43;;;8.10;;
26181;SDS011;13927;51.534;11.866;2022-10-18T01:17:12;9.82;;;6.95;;
26181;SDS011;13927;51.534;11.866;2022-10-18T01:31:22;7.53;;;6.47;;
26181;SDS011;13927;51.534;11.866;2022-10-18T01:34:04;7.80;;;6.22;;
26181;SDS011;13927;51.534;11.866;2022-10-18T01:36:34;8.80;;;6.50;;
26181;SDS011;13927;51.534;11.866;2022-10-18T01:39:05;7.90;;;6.10;;
26181;SDS011;13927;51.534;11.866;2022-10-18T01:41:37;11.20;;;6.15;;
26181;SDS011;13927;51.534;11.866;2022-10-18T01:44:06;9.93;;;7.60;;
26181;SDS011;13927;51.534;11.866;2022-10-18T01:46:38;9.15;;;5.88;;
26181;SDS011;13927;51.534;11.866;2022-10-18T01:49:05;8.05;;;5.97;;
26181;SDS011;13927;51.534;11.866;2022-10-18T01:51:31;8.20;;;6.72;;
26181;SDS011;13927;51.534;11.866;2022-10-18T01:53:58;9.75;;;7.20;;
26181;SDS011;13927;51.534;11.866;2022-10-18T01:56:40;9.32;;;6.75;;
26181;SDS011;13927;51.534;11.866;2022-10-18T02:08:43;9.00;;;7.35;;
26181;SDS011;13927;51.534;11.866;2022-10-18T02:11:27;9.38;;;7.35;;
26181;SDS011;13927;51.534;11.866;2022-10-18T02:13:56;10.40;;;8.60;;
26181;SDS011;13927;51.534;11.866;2022-10-18T02:16:36;14.73;;;9.68;;
26181;SDS011;13927;51.534;11.866;2022-10-18T02:21:55;12.10;;;10.07;;
26181;SDS011;13927;51.534;11.866;2022-10-18T02:24:23;16.27;;;10.80;;
26181;SDS011;13927;51.534;11.866;2022-10-18T02:29:21;16.42;;;12.90;;
26181;SDS011;13927;51.534;11.866;2022-10-18T02:31:48;15.35;;;11.30;;
26181;SDS011;13927;51.534;11.866;2022-10-18T02:36:54;16.88;;;12.30;;
26181;SDS011;13927;51.534;11.866;2022-10-18T02:39:33;15.45;;;12.27;;
26181;SDS011;13927;51.534;11.866;2022-10-18T02:42:05;15.95;;;13.15;;
26181;SDS011;13927;51.534;11.866;2022-10-18T02:44:34;14.32;;;12.45;;
26181;SDS011;13927;51.534;11.866;2022-10-18T02:47:00;14.73;;;11.38;;
26181;SDS011;13927;51.534;11.866;2022-10-18T02:49:26;18.80;;;14.40;;
26181;SDS011;13927;51.534;11.866;2022-10-18T02:51:52;15.80;;;13.65;;
26181;SDS011;13927;51.534;11.866;2022-10-18T02:54:18;17.40;;;14.38;;
26181;SDS011;13927;51.534;11.866;2022-10-18T02:56:44;18.88;;;15.23;;
26181;SDS011;13927;51.534;11.866;2022-10-18T02:59:10;17.88;;;14.38;;
26181;SDS011;13927;51.534;11.866;2022-10-18T03:01:36;13.85;;;12.45;;
26181;SDS011;13927;51.534;11.866;2022-10-18T03:04:02;15.85;;;13.60;;
26181;SDS011;13927;51.534;11.866;2022-10-18T03:06:28;16.30;;;13.20;;
26181;SDS011;13927;51.534;11.866;2022-10-18T03:08:54;15.07;;;13.23;;
26181;SDS011;13927;51.534;11.866;2022-10-18T03:11:20;19.17;;;14.35;;
26181;SDS011;13927;51.534;11.866;2022-10-18T03:13:46;18.02;;;15.65;;
26181;SDS011;13927;51.534;11.866;2022-10-18T03:16:14;18.02;;;15.68;;
26181;SDS011;13927;51.534;11.866;2022-10-18T03:18:40;19.90;;;17.33;;
26181;SDS011;13927;51.534;11.866;2022-10-18T03:21:06;19.73;;;16.63;;
26181;SDS011;13927;51.534;11.866;2022-10-18T03:23:32;18.50;;;15.68;;
26181;SDS011;13927;51.534;11.866;2022-10-18T03:25:58;22.55;;;17.55;;
26181;SDS011;13927;51.534;11.866;2022-10-18T03:28:24;16.83;;;15.00;;
26181;SDS011;13927;51.534;11.866;2022-10-18T03:30:50;18.40;;;16.40;;
26181;SDS011;13927;51.534;11.866;2022-10-18T03:33:16;17.95;;;16.05;;
26181;SDS011;13927;51.534;11.866;2022-10-18T03:35:42;20.08;;;17.02;;
26181;SDS011;13927;51.534;11.866;2022-10-18T03:38:07;23.17;;;19.65;;
26181;SDS011;13927;51.534;11.866;2022-10-18T03:40:33;20.98;;;17.52;;
26181;SDS011;13927;51.534;11.866;2022-10-18T03:42:59;18.23;;;16.27;;
26181;SDS011;13927;51.534;11.866;2022-10-18T03:45:25;21.85;;;18.13;;
26181;SDS011;13927;51.534;11.866;2022-10-18T03:47:51;24.73;;;17.90;;
26181;SDS011;13927;51.534;11.866;2022-10-18T03:50:16;17.92;;;15.88;;
26181;SDS011;13927;51.534;11.866;2022-10-18T03:52:42;19.83;;;16.58;;
26181;SDS011;13927;51.534;11.866;2022-10-18T03:55:08;19.63;;;17.52;;
26181;SDS011;13927;51.534;11.866;2022-10-18T03:57:34;20.77;;;17.70;;
26181;SDS011;13927;51.534;11.866;2022-10-18T03:59:59;20.00;;;17.83;;
26181;SDS011;13927;51.534;11.866;2022-10-18T04:02:25;19.08;;;17.15;;
26181;SDS011;13927;51.534;11.866;2022-10-18T04:04:51;19.83;;;17.73;;
26181;SDS011;13927;51.534;11.866;2022-10-18T04:07:17;23.38;;;19.23;;
26181;SDS011;13927;51.534;11.866;2022-10-18T04:09:43;21.13;;;17.85;;
26181;SDS011;13927;51.534;11.866;2022-10-18T04:12:09;20.58;;;17.52;;
26181;SDS011;13927;51.534;11.866;2022-10-18T04:14:34;21.52;;;16.95;;
26181;SDS011;13927;51.534;11.866;2022-10-18T04:17:00;21.98;;;17.25;;
26181;SDS011;13927;51.534;11.866;2022-10-18T04:19:26;22.52;;;18.67;;
26181;SDS011;13927;51.534;11.866;2022-10-18T04:21:52;21.35;;;16.38;;
26181;SDS011;13927;51.534;11.866;2022-10-18T04:24:18;20.83;;;17.90;;
26181;SDS011;13927;51.534;11.866;2022-10-18T04:26:44;19.05;;;16.33;;
26181;SDS011;13927;51.534;11.866;2022-10-18T04:29:10;20.48;;;16.48;;
26181;SDS011;13927;51.534;11.866;2022-10-18T04:31:36;21.83;;;17.35;;
26181;SDS011;13927;51.534;11.866;2022-10-18T04:34:01;22.60;;;18.27;;
26181;SDS011;13927;51.534;11.866;2022-10-18T04:36:28;22.13;;;18.88;;
26181;SDS011;13927;51.534;11.866;2022-10-18T04:38:55;22.50;;;17.90;;
26181;SDS011;13927;51.534;11.866;2022-10-18T04:41:21;22.42;;;19.42;;
26181;SDS011;13927;51.534;11.866;2022-10-18T04:43:47;23.13;;;19.25;;
26181;SDS011;13927;51.534;11.866;2022-10-18T04:46:12;23.23;;;18.15;;
26181;SDS011;13927;51.534;11.866;2022-10-18T04:48:38;23.27;;;18.95;;
26181;SDS011;13927;51.534;11.866;2022-10-18T04:51:04;23.83;;;18.52;;
26181;SDS011;13927;51.534;11.866;2022-10-18T04:53:30;22.27;;;18.95;;
26181;SDS011;13927;51.534;11.866;2022-10-18T04:55:56;21.90;;;17.27;;
26181;SDS011;13927;51.534;11.866;2022-10-18T04:58:22;21.10;;;16.23;;
26181;SDS011;13927;51.534;11.866;2022-10-18T05:00:48;19.45;;;16.90;;
26181;SDS011;13927;51.534;11.866;2022-10-18T05:03:15;19.27;;;16.92;;
26181;SDS011;13927;51.534;11.866;2022-10-18T05:05:41;18.50;;;16.50;;
26181;SDS011;13927;51.534;11.866;2022-10-18T05:08:07;20.45;;;16.38;;
26181;SDS011;13927;51.534;11.866;2022-10-18T05:10:33;19.25;;;16.38;;
26181;SDS011;13927;51.534;11.866;2022-10-18T05:12:59;21.15;;;17.13;;
26181;SDS011;13927;51.534;11.866;2022-10-18T05:15:25;22.50;;;19.35;;
26181;SDS011;13927;51.534;11.866;2022-10-18T05:17:51;22.13;;;18.20;;
26181;SDS011;13927;51.534;11.866;2022-10-18T05:20:16;21.80;;;18.05;;
26181;SDS011;13927;51.534;11.866;2022-10-18T05:22:42;19.60;;;17.65;;
26181;SDS011;13927;51.534;11.866;2022-10-18T05:25:08;23.50;;;19.33;;
26181;SDS011;13927;51.534;11.866;2022-10-18T05:27:34;22.40;;;18.75;;
26181;SDS011;13927;51.534;11.866;2022-10-18T05:30:00;21.48;;;18.35;;
26181;SDS011;13927;51.534;11.866;2022-10-18T05:32:26;21.90;;;19.23;;
26181;SDS011;13927;51.534;11.866;2022-10-18T05:34:52;19.30;;;17.17;;
26181;SDS011;13927;51.534;11.866;2022-10-18T05:37:17;26.50;;;21.35;;
26181;SDS011;13927;51.534;11.866;2022-10-18T05:39:43;23.30;;;19.83;;
26181;SDS011;13927;51.534;11.866;2022-10-18T05:42:09;26.77;;;19.85;;
26181;SDS011;13927;51.534;11.866;2022-10-18T05:44:35;29.40;;;21.90;;
26181;SDS011;13927;51.534;11.866;2022-10-18T05:47:00;29.38;;;23.17;;
26181;SDS011;13927;51.534;11.866;2022-10-18T05:49:26;29.23;;;22.25;;
26181;SDS011;13927;51.534;11.866;2022-10-18T05:51:52;26.45;;;20.77;;
26181;SDS011;13927;51.534;11.866;2022-10-18T05:54:18;29.90;;;23.58;;
26181;SDS011;13927;51.534;11.866;2022-10-18T05:56:45;31.02;;;23.92;;
26181;SDS011;13927;51.534;11.866;2022-10-18T05:59:10;28.70;;;23.33;;
26181;SDS011;13927;51.534;11.866;2022-10-18T06:01:37;27.60;;;21.27;;
26181;SDS011;13927;51.534;11.866;2022-10-18T06:04:04;29.73;;;22.30;;
26181;SDS011;13927;51.534;11.866;2022-10-18T06:06:30;30.20;;;23.60;;
26181;SDS011;13927;51.534;11.866;2022-10-18T06:08:57;34.08;;;23.23;;
26181;SDS011;13927;51.534;11.866;2022-10-18T06:11:24;33.95;;;23.42;;
26181;SDS011;13927;51.534;11.866;2022-10-18T06:13:50;36.17;;;24.33;;
26181;SDS011;13927;51.534;11.866;2022-10-18T06:16:18;31.67;;;24.30;;
26181;SDS011;13927;51.534;11.866;2022-10-18T06:18:46;33.60;;;24.02;;
26181;SDS011;13927;51.534;11.866;2022-10-18T06:21:14;34.53;;;24.52;;
26181;SDS011;13927;51.534;11.866;2022-10-18T06:23:41;31.90;;;22.85;;
26181;SDS011;13927;51.534;11.866;2022-10-18T06:26:08;31.75;;;23.02;;
26181;SDS011;13927;51.534;11.866;2022-10-18T06:28:36;32.60;;;24.05;;
26181;SDS011;13927;51.534;11.866;2022-10-18T06:31:03;38.45;;;32.42;;
26181;SDS011;13927;51.534;11.866;2022-10-18T06:33:30;89.63;;;81.85;;
26181;SDS011;13927;51.534;11.866;2022-10-18T06:36:01;38.30;;;26.98;;
26181;SDS011;13927;51.534;11.866;2022-10-18T06:38:48;31.55;;;21.02;;
26181;SDS011;13927;51.534;11.866;2022-10-18T06:41:14;26.85;;;18.08;;
26181;SDS011;13927;51.534;11.866;2022-10-18T06:43:41;26.60;;;17.60;;
26181;SDS011;13927;51.534;11.866;2022-10-18T06:46:08;22.60;;;15.65;;
26181;SDS011;13927;51.534;11.866;2022-10-18T06:48:34;29.05;;;24.98;;
26181;SDS011;13927;51.534;11.866;2022-10-18T06:51:03;22.13;;;16.17;;
26181;SDS011;13927;51.534;11.866;2022-10-18T06:53:32;25.50;;;16.50;;
26181;SDS011;13927;51.534;11.866;2022-10-18T06:56:09;21.98;;;15.77;;
26181;SDS011;13927;51.534;11.866;2022-10-18T06:58:37;24.83;;;17.10;;
26181;SDS011;13927;51.534;11.866;2022-10-18T07:01:07;24.13;;;17.42;;
26181;SDS011;13927;51.534;11.866;2022-10-18T07:03:41;29.75;;;21.67;;
26181;SDS011;13927;51.534;11.866;2022-10-18T07:06:08;27.05;;;20.58;;
26181;SDS011;13927;51.534;11.866;2022-10-18T07:08:36;33.35;;;27.90;;
26181;SDS011;13927;51.534;11.866;2022-10-18T07:11:03;27.23;;;21.50;;
26181;SDS011;13927;51.534;11.866;2022-10-18T07:13:30;25.50;;;18.90;;
26181;SDS011;13927;51.534;11.866;2022-10-18T07:16:01;44.05;;;39.85;;
26181;SDS011;13927;51.534;11.866;2022-10-18T07:18:32;21.30;;;19.10;;
26181;SDS011;13927;51.534;11.866;2022-10-18T07:21:05;19.23;;;17.20;;
26181;SDS011;13927;51.534;11.866;2022-10-18T07:23:37;16.45;;;13.13;;
26181;SDS011;13927;51.534;11.866;2022-10-18T07:29:14;11.43;;;9.68;;
26181;SDS011;13927;51.534;11.866;2022-10-18T07:31:39;8.63;;;7.72;;
26181;SDS011;13927;51.534;11.866;2022-10-18T07:34:05;8.57;;;7.70;;
26181;SDS011;13927;51.534;11.866;2022-10-18T07:36:33;8.73;;;7.82;;
26181;SDS011;13927;51.534;11.866;2022-10-18T07:38:59;9.05;;;8.02;;
26181;SDS011;13927;51.534;11.866;2022-10-18T07:41:24;8.57;;;7.72;;
26181;SDS011;13927;51.534;11.866;2022-10-18T07:43:51;9.73;;;8.05;;
26181;SDS011;13927;51.534;11.866;2022-10-18T07:46:17;9.27;;;8.18;;
26181;SDS011;13927;51.534;11.866;2022-10-18T07:48:46;23.17;;;21.17;;
26181;SDS011;13927;51.534;11.866;2022-10-18T07:51:12;25.35;;;23.35;;
26181;SDS011;13927;51.534;11.866;2022-10-18T07:53:39;13.95;;;12.75;;
26181;SDS011;13927;51.534;11.866;2022-10-18T07:56:06;16.63;;;14.93;;
26181;SDS011;13927;51.534;11.866;2022-10-18T07:58:39;19.80;;;18.00;;
26181;SDS011;13927;51.534;11.866;2022-10-18T08:01:10;20.77;;;18.98;;
26181;SDS011;13927;51.534;11.866;2022-10-18T08:03:37;12.80;;;11.57;;
26181;SDS011;13927;51.534;11.866;2022-10-18T08:06:04;16.98;;;15.40;;
26181;SDS011;13927;51.534;11.866;2022-10-18T08:08:34;10.27;;;7.28;;
26181;SDS011;13927;51.534;11.866;2022-10-18T08:11:02;7.95;;;7.03;;
26181;SDS011;13927;51.534;11.866;2022-10-18T08:13:34;9.43;;;6.63;;
26181;SDS011;13927;51.534;11.866;2022-10-18T08:16:05;7.88;;;7.07;;
26181;SDS011;13927;51.534;11.866;2022-10-18T08:18:37;8.15;;;6.70;;
26181;SDS011;13927;51.534;11.866;2022-10-18T08:21:04;6.53;;;5.57;;
26181;SDS011;13927;51.534;11.866;2022-10-18T08:23:32;6.72;;;5.88;;
26181;SDS011;13927;51.534;11.866;2022-10-18T08:26:00;5.95;;;5.35;;
26181;SDS011;13927;51.534;11.866;2022-10-18T08:28:28;6.30;;;5.50;;
26181;SDS011;13927;51.534;11.866;2022-10-18T08:30:54;5.97;;;5.13;;
26181;SDS011;13927;51.534;11.866;2022-10-18T08:33:19;7.13;;;6.10;;
26181;SDS011;13927;51.534;11.866;2022-10-18T08:35:55;8.75;;;7.85;;
26181;SDS011;13927;51.534;11.866;2022-10-18T08:38:28;7.43;;;5.18;;
26181;SDS011;13927;51.534;11.866;2022-10-18T08:40:55;5.28;;;3.78;;
26181;SDS011;13927;51.534;11.866;2022-10-18T08:43:32;5.10;;;3.60;;
26181;SDS011;13927;51.534;11.866;2022-10-18T08:46:10;4.97;;;4.03;;
26181;SDS011;13927;51.534;11.866;2022-10-18T08:48:41;4.22;;;3.60;;
26181;SDS011;13927;51.534;11.866;2022-10-18T08:56:41;4.50;;;3.42;;
26181;SDS011;13927;51.534;11.866;2022-10-18T08:59:11;4.53;;;3.67;;
26181;SDS011;13927;51.534;11.866;2022-10-18T09:04:47;5.13;;;4.38;;
26181;SDS011;13927;51.534;11.866;2022-10-18T09:07:49;4.65;;;3.90;;
26181;SDS011;13927;51.534;11.866;2022-10-18T09:20:46;5.22;;;4.72;;
26181;SDS011;13927;51.534;11.866;2022-10-18T09:23:19;5.57;;;4.90;;
26181;SDS011;13927;51.534;11.866;2022-10-18T09:25:59;6.07;;;4.60;;
26181;SDS011;13927;51.534;11.866;2022-10-18T09:34:09;9.70;;;7.72;;
26181;SDS011;13927;51.534;11.866;2022-10-18T09:36:50;6.68;;;5.80;;
26181;SDS011;13927;51.534;11.866;2022-10-18T09:39:24;5.28;;;4.57;;
26181;SDS011;13927;51.534;11.866;2022-10-18T09:41:59;5.28;;;4.18;;
26181;SDS011;13927;51.534;11.866;2022-10-18T09:45:00;5.82;;;3.92;;
26181;SDS011;13927;51.534;11.866;2022-10-18T09:50:59;5.50;;;3.83;;
26181;SDS011;13927;51.534;11.866;2022-10-18T09:56:05;5.55;;;4.40;;
26181;SDS011;13927;51.534;11.866;2022-10-18T09:58:43;4.50;;;4.10;;
26181;SDS011;13927;51.534;11.866;2022-10-18T10:01:13;5.18;;;4.38;;
26181;SDS011;13927;51.534;11.866;2022-10-18T10:03:44;4.93;;;4.25;;
26181;SDS011;13927;51.534;11.866;2022-10-18T10:08:43;4.90;;;3.33;;
26181;SDS011;13927;51.534;11.866;2022-10-18T10:14:14;4.88;;;4.13;;
26181;SDS011;13927;51.534;11.866;2022-10-18T10:16:48;4.22;;;3.70;;
26181;SDS011;13927;51.534;11.866;2022-10-18T10:19:19;5.22;;;3.83;;
26181;SDS011;13927;51.534;11.866;2022-10-18T10:22:32;4.38;;;3.95;;
26181;SDS011;13927;51.534;11.866;2022-10-18T10:25:04;4.75;;;4.32;;
26181;SDS011;13927;51.534;11.866;2022-10-18T10:27:38;5.43;;;4.93;;
26181;SDS011;13927;51.534;11.866;2022-10-18T10:32:52;9.32;;;6.85;;
26181;SDS011;13927;51.534;11.866;2022-10-18T10:38:03;15.23;;;12.25;;
26181;SDS011;13927;51.534;11.866;2022-10-18T10:40:34;16.35;;;12.55;;
26181;SDS011;13927;51.534;11.866;2022-10-18T10:43:25;15.23;;;12.10;;
26181;SDS011;13927;51.534;11.866;2022-10-18T10:48:24;4.45;;;2.92;;
26181;SDS011;13927;51.534;11.866;2022-10-18T10:50:55;16.17;;;12.95;;
26181;SDS011;13927;51.534;11.866;2022-10-18T10:59:43;14.38;;;10.13;;
26181;SDS011;13927;51.534;11.866;2022-10-18T11:04:40;18.83;;;13.15;;
26181;SDS011;13927;51.534;11.866;2022-10-18T11:20:49;28.33;;;22.55;;
26181;SDS011;13927;51.534;11.866;2022-10-18T11:23:23;26.73;;;17.20;;
26181;SDS011;13927;51.534;11.866;2022-10-18T11:28:56;25.08;;;18.17;;
26181;SDS011;13927;51.534;11.866;2022-10-18T13:08:31;4.40;;;3.05;;
26181;SDS011;13927;51.534;11.866;2022-10-18T13:16:12;3.08;;;2.45;;
26181;SDS011;13927;51.534;11.866;2022-10-18T13:19:16;2.65;;;2.42;;
26181;SDS011;13927;51.534;11.866;2022-10-18T13:28:57;4.20;;;2.95;;
26181;SDS011;13927;51.534;11.866;2022-10-18T13:34:36;4.55;;;3.38;;
26181;SDS011;13927;51.534;11.866;2022-10-18T13:39:36;4.13;;;3.67;;
26181;SDS011;13927;51.534;11.866;2022-10-18T13:42:27;4.60;;;4.20;;
26181;SDS011;13927;51.534;11.866;2022-10-18T13:57:10;5.43;;;4.75;;
26181;SDS011;13927;51.534;11.866;2022-10-18T14:08:54;7.07;;;4.22;;
26181;SDS011;13927;51.534;11.866;2022-10-18T14:11:47;6.90;;;4.88;;
26181;SDS011;13927;51.534;11.866;2022-10-18T14:14:30;4.90;;;4.30;;
26181;SDS011;13927;51.534;11.866;2022-10-18T14:17:24;5.80;;;5.22;;
26181;SDS011;13927;51.534;11.866;2022-10-18T14:25:38;6.10;;;4.57;;
26181;SDS011;13927;51.534;11.866;2022-10-18T14:31:03;5.22;;;4.53;;
26181;SDS011;13927;51.534;11.866;2022-10-18T14:36:21;5.20;;;4.70;;
26181;SDS011;13927;51.534;11.866;2022-10-18T14:38:59;5.28;;;4.63;;
26181;SDS011;13927;51.534;11.866;2022-10-18T14:41:49;5.00;;;4.60;;
26181;SDS011;13927;51.534;11.866;2022-10-18T14:44:23;5.90;;;5.30;;
26181;SDS011;13927;51.534;11.866;2022-10-18T14:47:02;6.83;;;4.83;;
26181;SDS011;13927;51.534;11.866;2022-10-18T14:49:41;6.28;;;5.68;;
26181;SDS011;13927;51.534;11.866;2022-10-18T14:52:09;6.78;;;5.35;;
26181;SDS011;13927;51.534;11.866;2022-10-18T14:54:40;5.80;;;5.20;;
26181;SDS011;13927;51.534;11.866;2022-10-18T14:57:06;5.13;;;4.63;;
26181;SDS011;13927;51.534;11.866;2022-10-18T14:59:45;5.75;;;4.90;;
26181;SDS011;13927;51.534;11.866;2022-10-18T15:02:23;5.60;;;5.00;;
26181;SDS011;13927;51.534;11.866;2022-10-18T15:05:08;4.60;;;4.15;;
26181;SDS011;13927;51.534;11.866;2022-10-18T15:07:34;6.22;;;4.68;;
26181;SDS011;13927;51.534;11.866;2022-10-18T15:10:01;5.93;;;5.18;;
26181;SDS011;13927;51.534;11.866;2022-10-18T15:12:29;6.28;;;5.53;;
26181;SDS011;13927;51.534;11.866;2022-10-18T15:14:57;6.28;;;5.68;;
26181;SDS011;13927;51.534;11.866;2022-10-18T15:17:26;6.88;;;6.28;;
26181;SDS011;13927;51.534;11.866;2022-10-18T15:19:56;8.07;;;5.90;;
26181;SDS011;13927;51.534;11.866;2022-10-18T15:22:25;8.52;;;6.30;;
26181;SDS011;13927;51.534;11.866;2022-10-18T15:25:08;8.18;;;6.07;;
26181;SDS011;13927;51.534;11.866;2022-10-18T15:27:44;6.40;;;5.80;;
26181;SDS011;13927;51.534;11.866;2022-10-18T15:30:18;6.57;;;5.97;;
26181;SDS011;13927;51.534;11.866;2022-10-18T15:32:56;6.00;;;5.40;;
26181;SDS011;13927;51.534;11.866;2022-10-18T15:35:25;6.32;;;5.72;;
26181;SDS011;13927;51.534;11.866;2022-10-18T15:37:59;7.93;;;7.13;;
26181;SDS011;13927;51.534;11.866;2022-10-18T15:40:41;8.73;;;7.82;;
26181;SDS011;13927;51.534;11.866;2022-10-18T15:45:58;8.48;;;7.63;;
26181;SDS011;13927;51.534;11.866;2022-10-18T15:48:37;9.70;;;8.52;;
26181;SDS011;13927;51.534;11.866;2022-10-18T15:51:06;10.18;;;9.00;;
26181;SDS011;13927;51.534;11.866;2022-10-18T15:53:50;11.32;;;8.48;;
26181;SDS011;13927;51.534;11.866;2022-10-18T15:56:36;10.40;;;9.40;;
26181;SDS011;13927;51.534;11.866;2022-10-18T15:59:19;8.40;;;7.60;;
26181;SDS011;13927;51.534;11.866;2022-10-18T16:01:52;8.80;;;8.00;;
26181;SDS011;13927;51.534;11.866;2022-10-18T16:04:21;9.88;;;8.40;;
26181;SDS011;13927;51.534;11.866;2022-10-18T16:06:53;9.40;;;8.35;;
26181;SDS011;13927;51.534;11.866;2022-10-18T16:09:20;10.95;;;8.48;;
26181;SDS011;13927;51.534;11.866;2022-10-18T16:11:49;8.18;;;7.22;;
26181;SDS011;13927;51.534;11.866;2022-10-18T16:14:16;8.32;;;7.53;;
26181;SDS011;13927;51.534;11.866;2022-10-18T16:16:43;8.73;;;7.68;;
26181;SDS011;13927;51.534;11.866;2022-10-18T16:19:12;9.25;;;7.55;;
26181;SDS011;13927;51.534;11.866;2022-10-18T16:21:39;7.40;;;6.68;;
26181;SDS011;13927;51.534;11.866;2022-10-18T16:24:06;8.95;;;7.32;;
26181;SDS011;13927;51.534;11.866;2022-10-18T16:26:33;8.88;;;7.30;;
26181;SDS011;13927;51.534;11.866;2022-10-18T16:28:59;11.25;;;9.10;;
26181;SDS011;13927;51.534;11.866;2022-10-18T16:31:26;9.63;;;8.55;;
26181;SDS011;13927;51.534;11.866;2022-10-18T16:33:55;13.55;;;8.10;;
26181;SDS011;13927;51.534;11.866;2022-10-18T16:36:25;11.40;;;8.38;;
26181;SDS011;13927;51.534;11.866;2022-10-18T16:38:54;10.43;;;8.52;;
26181;SDS011;13927;51.534;11.866;2022-10-18T16:41:22;9.25;;;8.43;;
26181;SDS011;13927;51.534;11.866;2022-10-18T16:43:49;10.60;;;8.55;;
26181;SDS011;13927;51.534;11.866;2022-10-18T16:46:16;9.77;;;8.20;;
26181;SDS011;13927;51.534;11.866;2022-10-18T16:48:44;9.15;;;8.05;;
26181;SDS011;13927;51.534;11.866;2022-10-18T16:51:12;9.82;;;8.73;;
26181;SDS011;13927;51.534;11.866;2022-10-18T16:53:38;11.85;;;9.95;;
26181;SDS011;13927;51.534;11.866;2022-10-18T16:56:05;12.98;;;9.75;;
26181;SDS011;13927;51.534;11.866;2022-10-18T16:58:38;12.13;;;8.98;;
26181;SDS011;13927;51.534;11.866;2022-10-18T17:01:03;10.80;;;8.60;;
26181;SDS011;13927;51.534;11.866;2022-10-18T17:03:29;11.10;;;10.00;;
26181;SDS011;13927;51.534;11.866;2022-10-18T17:05:55;10.85;;;9.73;;
26181;SDS011;13927;51.534;11.866;2022-10-18T17:08:22;14.45;;;10.18;;
26181;SDS011;13927;51.534;11.866;2022-10-18T17:10:52;11.63;;;10.15;;
26181;SDS011;13927;51.534;11.866;2022-10-18T17:13:21;11.13;;;9.40;;
26181;SDS011;13927;51.534;11.866;2022-10-18T17:15:48;10.60;;;9.50;;
26181;SDS011;13927;51.534;11.866;2022-10-18T17:18:16;13.82;;;12.27;;
26181;SDS011;13927;51.534;11.866;2022-10-18T17:20:50;12.48;;;9.88;;
26181;SDS011;13927;51.534;11.866;2022-10-18T17:23:16;11.85;;;10.65;;
26181;SDS011;13927;51.534;11.866;2022-10-18T17:25:42;10.35;;;9.20;;
26181;SDS011;13927;51.534;11.866;2022-10-18T17:28:10;12.18;;;10.52;;
26181;SDS011;13927;51.534;11.866;2022-10-18T17:30:40;17.48;;;14.27;;
26181;SDS011;13927;51.534;11.866;2022-10-18T17:33:07;14.82;;;13.23;;
26181;SDS011;13927;51.534;11.866;2022-10-18T17:35:33;14.95;;;13.43;;
26181;SDS011;13927;51.534;11.866;2022-10-18T17:37:59;20.25;;;16.23;;
26181;SDS011;13927;51.534;11.866;2022-10-18T17:40:24;14.85;;;13.05;;
26181;SDS011;13927;51.534;11.866;2022-10-18T17:42:50;16.52;;;14.15;;
26181;SDS011;13927;51.534;11.866;2022-10-18T17:45:18;15.10;;;13.20;;
26181;SDS011;13927;51.534;11.866;2022-10-18T17:47:45;12.85;;;11.40;;
26181;SDS011;13927;51.534;11.866;2022-10-18T17:50:11;14.20;;;12.70;;
26181;SDS011;13927;51.534;11.866;2022-10-18T17:52:42;13.32;;;11.32;;
26181;SDS011;13927;51.534;11.866;2022-10-18T17:55:10;16.80;;;11.52;;
26181;SDS011;13927;51.534;11.866;2022-10-18T17:57:38;12.73;;;10.85;;
26181;SDS011;13927;51.534;11.866;2022-10-18T18:00:05;18.05;;;14.23;;
26181;SDS011;13927;51.534;11.866;2022-10-18T18:02:34;16.08;;;13.63;;
26181;SDS011;13927;51.534;11.866;2022-10-18T18:05:00;15.35;;;13.10;;
26181;SDS011;13927;51.534;11.866;2022-10-18T18:07:27;17.02;;;13.55;;
26181;SDS011;13927;51.534;11.866;2022-10-18T18:09:52;16.63;;;11.10;;
26181;SDS011;13927;51.534;11.866;2022-10-18T18:12:18;10.68;;;9.57;;
26181;SDS011;13927;51.534;11.866;2022-10-18T18:14:44;12.98;;;11.23;;
26181;SDS011;13927;51.534;11.866;2022-10-18T18:17:11;14.70;;;10.88;;
26181;SDS011;13927;51.534;11.866;2022-10-18T18:19:37;13.38;;;11.95;;
26181;SDS011;13927;51.534;11.866;2022-10-18T18:22:03;15.93;;;13.05;;
26181;SDS011;13927;51.534;11.866;2022-10-18T18:24:29;16.20;;;12.88;;
26181;SDS011;13927;51.534;11.866;2022-10-18T18:26:55;16.40;;;13.15;;
26181;SDS011;13927;51.534;11.866;2022-10-18T18:29:22;17.00;;;13.50;;
26181;SDS011;13927;51.534;11.866;2022-10-18T18:31:51;19.92;;;14.68;;
26181;SDS011;13927;51.534;11.866;2022-10-18T18:34:17;22.73;;;15.73;;
26181;SDS011;13927;51.534;11.866;2022-10-18T18:36:46;16.70;;;14.68;;
26181;SDS011;13927;51.534;11.866;2022-10-18T18:39:19;18.10;;;13.75;;
26181;SDS011;13927;51.534;11.866;2022-10-18T18:41:48;91.45;;;17.33;;
26181;SDS011;13927;51.534;11.866;2022-10-18T18:44:16;48.75;;;10.82;;
26181;SDS011;13927;51.534;11.866;2022-10-18T18:46:43;9.43;;;7.78;;
26181;SDS011;13927;51.534;11.866;2022-10-18T18:49:10;8.55;;;7.65;;
26181;SDS011;13927;51.534;11.866;2022-10-18T18:51:37;12.63;;;9.85;;
26181;SDS011;13927;51.534;11.866;2022-10-18T18:54:08;15.77;;;11.73;;
26181;SDS011;13927;51.534;11.866;2022-10-18T18:56:36;15.65;;;13.48;;
26181;SDS011;13927;51.534;11.866;2022-10-18T18:59:02;20.48;;;14.75;;